SBSN/STM METAR and TAF weather

Enter ICAO airport designator
Station Type Date Time Source
SBSN METAR 2019/08/23 15:00 UTC NOAA

SBSN 231500Z 12009KT 9999 FEW017 31/25 Q1016


Station Type Date Time Source
SBSN Decoded METAR 2019/08/23 15:00 UTC NOAA

Station name not available
Aug 23, 2019 - 11:00 AM EDT / 2019.08.23 1500 UTC
Wind: from the ESE (120 degrees) at 10 MPH (9 KT):0
Visibility: greater than 7 mile(s):0
Sky conditions: mostly clear
Temperature: 87 F (31 C)
Heat index: 97.5 F (36.4 C):1
Dew Point: 77 F (25 C)
Relative Humidity: 70%
Pressure (altimeter): 30.00 in. Hg (1016 hPa)
ob: SBSN 231500Z 12009KT 9999 FEW017 31/25 Q1016
cycle: 15

Station Type Date Time Source
SBSN TAF 2019/08/23 12:53 UTC NOAA

TAF SBSN 230900Z 2312/2412 10010KT 9999 FEW023 TX32/2316Z TN23/2407Z
BECMG 2400/2402 14003KT CAVOK
BECMG 2407/2409 09010KT
RMK PHD

Example: see airport list